Amador City, California
Current Conditions -  °F | °C
As of 6:55 AM on Wednesday 22 Oct 2014 (Local Time) from KPVF Reporting Station
Clear Clear  
Wind Chill: 11°   Ceiling: Unl
Heat Index: 11°   Visibility: 10mi
Dew Point: -3°   Wind: 0mph
Humidity: 38%   Direction: NA
Pressure: 30.06"   Gusts: NA
Location:  38.42°N, 120.82°W
Report Text: KPVF 221355Z AUTO 00000KT 10SM CLR 11/M03 A3006 RMK AO1
Loading
Personal Weather Stations






























Interactive Weather Map New forecast layout! Learn more

10-Day Weather Forecast

Advertisements
Track Severe Weather on mobile